sensor_id;sensor_type;location;lat;lon;timestamp;pressure;altitude;pressure_sealevel;temperature
60731;BMP280;46580;52.114;11.674;2023-04-25T00:00:13;100113.94;;;7.72
60731;BMP280;46580;52.114;11.674;2023-04-25T00:02:39;100107.53;;;7.67
60731;BMP280;46580;52.114;11.674;2023-04-25T00:05:05;100113.72;;;7.97
60731;BMP280;46580;52.114;11.674;2023-04-25T00:07:30;100116.28;;;7.86
60731;BMP280;46580;52.114;11.674;2023-04-25T00:09:57;100111.53;;;7.81
60731;BMP280;46580;52.114;11.674;2023-04-25T00:12:23;100106.81;;;7.76
60731;BMP280;46580;52.114;11.674;2023-04-25T00:14:48;100110.91;;;7.78
60731;BMP280;46580;52.114;11.674;2023-04-25T00:17:15;100106.91;;;7.63
60731;BMP280;46580;52.114;11.674;2023-04-25T00:19:43;100115.66;;;7.61
60731;BMP280;46580;52.114;11.674;2023-04-25T00:22:10;100111.66;;;7.57
60731;BMP280;46580;52.114;11.674;2023-04-25T00:24:35;100118.22;;;7.61
60731;BMP280;46580;52.114;11.674;2023-04-25T00:27:01;100110.75;;;7.58
60731;BMP280;46580;52.114;11.674;2023-04-25T00:29:26;100117.59;;;7.58
60731;BMP280;46580;52.114;11.674;2023-04-25T00:31:51;100112.03;;;7.63
60731;BMP280;46580;52.114;11.674;2023-04-25T00:34:17;100109.63;;;7.73
60731;BMP280;46580;52.114;11.674;2023-04-25T00:36:42;100111.63;;;7.80
60731;BMP280;46580;52.114;11.674;2023-04-25T00:39:07;100114.53;;;7.86
60731;BMP280;46580;52.114;11.674;2023-04-25T00:41:33;100111.41;;;7.94
60731;BMP280;46580;52.114;11.674;2023-04-25T00:43:59;100109.13;;;8.01
60731;BMP280;46580;52.114;11.674;2023-04-25T00:46:25;100108.88;;;8.04
60731;BMP280;46580;52.114;11.674;2023-04-25T00:48:50;100111.09;;;8.09
60731;BMP280;46580;52.114;11.674;2023-04-25T00:51:19;100113.44;;;8.12
60731;BMP280;46580;52.114;11.674;2023-04-25T00:53:46;100120.66;;;8.17
60731;BMP280;46580;52.114;11.674;2023-04-25T00:56:12;100115.63;;;8.16
60731;BMP280;46580;52.114;11.674;2023-04-25T00:58:38;100117.38;;;8.16
60731;BMP280;46580;52.114;11.674;2023-04-25T01:01:03;100121.13;;;8.12
60731;BMP280;46580;52.114;11.674;2023-04-25T01:03:33;100122.75;;;8.13
60731;BMP280;46580;52.114;11.674;2023-04-25T01:06:01;100118.22;;;8.16
60731;BMP280;46580;52.114;11.674;2023-04-25T01:08:26;100112.25;;;8.16
60731;BMP280;46580;52.114;11.674;2023-04-25T01:10:52;100112.41;;;8.14
60731;BMP280;46580;52.114;11.674;2023-04-25T01:13:17;100107.28;;;8.14
60731;BMP280;46580;52.114;11.674;2023-04-25T01:15:42;100119.03;;;8.17
60731;BMP280;46580;52.114;11.674;2023-04-25T01:18:09;100113.22;;;8.15
60731;BMP280;46580;52.114;11.674;2023-04-25T01:20:36;100112.25;;;8.16
60731;BMP280;46580;52.114;11.674;2023-04-25T01:23:02;100121.59;;;8.17
60731;BMP280;46580;52.114;11.674;2023-04-25T01:25:28;100112.03;;;8.18
60731;BMP280;46580;52.114;11.674;2023-04-25T01:27:58;100123.00;;;8.20
60731;BMP280;46580;52.114;11.674;2023-04-25T01:30:25;100113.78;;;8.18
60731;BMP280;46580;52.114;11.674;2023-04-25T01:32:52;100128.94;;;8.21
60731;BMP280;46580;52.114;11.674;2023-04-25T01:35:19;100112.88;;;8.19
60731;BMP280;46580;52.114;11.674;2023-04-25T01:37:45;100118.00;;;8.19
60731;BMP280;46580;52.114;11.674;2023-04-25T01:40:12;100115.53;;;8.17
60731;BMP280;46580;52.114;11.674;2023-04-25T01:42:41;100118.09;;;8.17
60731;BMP280;46580;52.114;11.674;2023-04-25T01:45:08;100114.59;;;8.18
60731;BMP280;46580;52.114;11.674;2023-04-25T01:47:34;100115.63;;;8.16
60731;BMP280;46580;52.114;11.674;2023-04-25T01:50:03;100124.41;;;8.14
60731;BMP280;46580;52.114;11.674;2023-04-25T01:52:29;100120.31;;;8.11
60731;BMP280;46580;52.114;11.674;2023-04-25T01:54:57;100122.16;;;8.09
60731;BMP280;46580;52.114;11.674;2023-04-25T01:57:24;100124.16;;;8.06
60731;BMP280;46580;52.114;11.674;2023-04-25T01:59:50;100120.31;;;8.00
60731;BMP280;46580;52.114;11.674;2023-04-25T02:02:16;100123.88;;;7.98
60731;BMP280;46580;52.114;11.674;2023-04-25T02:04:41;100130.66;;;7.99
60731;BMP280;46580;52.114;11.674;2023-04-25T02:07:06;100126.06;;;7.92
60731;BMP280;46580;52.114;11.674;2023-04-25T02:09:32;100131.31;;;7.90
60731;BMP280;46580;52.114;11.674;2023-04-25T02:11:57;100123.72;;;7.89
60731;BMP280;46580;52.114;11.674;2023-04-25T02:14:23;100124.34;;;7.92
60731;BMP280;46580;52.114;11.674;2023-04-25T02:16:48;100124.34;;;7.92
60731;BMP280;46580;52.114;11.674;2023-04-25T02:19:14;100116.84;;;7.89
60731;BMP280;46580;52.114;11.674;2023-04-25T02:21:39;100115.94;;;7.90
60731;BMP280;46580;52.114;11.674;2023-04-25T02:24:05;100115.94;;;7.90
60731;BMP280;46580;52.114;11.674;2023-04-25T02:26:31;100119.41;;;7.89
60731;BMP280;46580;52.114;11.674;2023-04-25T02:28:56;100118.50;;;7.90
60731;BMP280;46580;52.114;11.674;2023-04-25T02:31:22;100124.44;;;7.91
60731;BMP280;46580;52.114;11.674;2023-04-25T02:33:49;100125.25;;;7.91
60731;BMP280;46580;52.114;11.674;2023-04-25T02:36:14;100130.16;;;7.94
60731;BMP280;46580;52.114;11.674;2023-04-25T02:38:40;100121.06;;;7.90
60731;BMP280;46580;52.114;11.674;2023-04-25T02:41:05;100129.09;;;7.86
60731;BMP280;46580;52.114;11.674;2023-04-25T02:43:31;100128.28;;;7.85
60731;BMP280;46580;52.114;11.674;2023-04-25T02:45:56;100123.38;;;7.82
60731;BMP280;46580;52.114;11.674;2023-04-25T02:48:21;100116.63;;;7.81
60731;BMP280;46580;52.114;11.674;2023-04-25T02:50:46;100114.28;;;7.79
60731;BMP280;46580;52.114;11.674;2023-04-25T02:53:12;100120.44;;;7.76
60731;BMP280;46580;52.114;11.674;2023-04-25T02:55:37;100117.78;;;7.78
60731;BMP280;46580;52.114;11.674;2023-04-25T02:58:02;100125.47;;;7.78
60731;BMP280;46580;52.114;11.674;2023-04-25T03:00:28;100123.00;;;7.76
60731;BMP280;46580;52.114;11.674;2023-04-25T03:02:53;100115.22;;;7.78
60731;BMP280;46580;52.114;11.674;2023-04-25T03:05:19;100112.19;;;7.73
60731;BMP280;46580;52.114;11.674;2023-04-25T03:07:44;100107.28;;;7.70
60731;BMP280;46580;52.114;11.674;2023-04-25T03:10:11;100123.69;;;7.67
60731;BMP280;46580;52.114;11.674;2023-04-25T03:12:36;100120.44;;;7.65
60731;BMP280;46580;52.114;11.674;2023-04-25T03:15:02;100119.25;;;7.59
60731;BMP280;46580;52.114;11.674;2023-04-25T03:17:28;100119.59;;;7.54
60731;BMP280;46580;52.114;11.674;2023-04-25T03:19:53;100125.84;;;7.50
60731;BMP280;46580;52.114;11.674;2023-04-25T03:22:19;100129.13;;;7.52
60731;BMP280;46580;52.114;11.674;2023-04-25T03:24:45;100131.19;;;7.47
60731;BMP280;46580;52.114;11.674;2023-04-25T03:27:10;100128.13;;;7.42
60731;BMP280;46580;52.114;11.674;2023-04-25T03:29:35;100125.47;;;7.44
60731;BMP280;46580;52.114;11.674;2023-04-25T03:32:01;100131.75;;;7.40
60731;BMP280;46580;52.114;11.674;2023-04-25T03:34:26;100128.69;;;7.35
60731;BMP280;46580;52.114;11.674;2023-04-25T03:36:51;100130.31;;;7.36
60731;BMP280;46580;52.114;11.674;2023-04-25T03:39:17;100142.31;;;7.36
60731;BMP280;46580;52.114;11.674;2023-04-25T03:41:42;100138.00;;;7.36
60731;BMP280;46580;52.114;11.674;2023-04-25T03:44:08;100143.34;;;7.33
60731;BMP280;46580;52.114;11.674;2023-04-25T03:46:33;100141.38;;;7.37
60731;BMP280;46580;52.114;11.674;2023-04-25T03:48:58;100141.50;;;7.35
60731;BMP280;46580;52.114;11.674;2023-04-25T03:51:25;100144.19;;;7.34
60731;BMP280;46580;52.114;11.674;2023-04-25T03:53:51;100147.66;;;7.33
60731;BMP280;46580;52.114;11.674;2023-04-25T03:56:17;100146.59;;;7.35
60731;BMP280;46580;52.114;11.674;2023-04-25T03:58:42;100142.91;;;7.39
60731;BMP280;46580;52.114;11.674;2023-04-25T04:01:07;100145.47;;;7.39
60731;BMP280;46580;52.114;11.674;2023-04-25T04:03:34;100143.63;;;7.41
60731;BMP280;46580;52.114;11.674;2023-04-25T04:06:01;100145.13;;;7.43
60731;BMP280;46580;52.114;11.674;2023-04-25T04:08:29;100144.94;;;7.46
60731;BMP280;46580;52.114;11.674;2023-04-25T04:10:54;100143.19;;;7.47
60731;BMP280;46580;52.114;11.674;2023-04-25T04:13:19;100142.03;;;7.51
60731;BMP280;46580;52.114;11.674;2023-04-25T04:15:45;100147.97;;;7.51
60731;BMP280;46580;52.114;11.674;2023-04-25T04:18:10;100140.50;;;7.48
60731;BMP280;46580;52.114;11.674;2023-04-25T04:20:35;100151.44;;;7.50
60731;BMP280;46580;52.114;11.674;2023-04-25T04:23:01;100146.31;;;7.50
60731;BMP280;46580;52.114;11.674;2023-04-25T04:25:26;100153.19;;;7.50
60731;BMP280;46580;52.114;11.674;2023-04-25T04:27:52;100152.38;;;7.49
60731;BMP280;46580;52.114;11.674;2023-04-25T04:30:21;100151.44;;;7.50
60731;BMP280;46580;52.114;11.674;2023-04-25T04:32:51;100150.72;;;7.48
60731;BMP280;46580;52.114;11.674;2023-04-25T04:35:18;100153.09;;;7.51
60731;BMP280;46580;52.114;11.674;2023-04-25T04:37:44;100157.03;;;7.55
60731;BMP280;46580;52.114;11.674;2023-04-25T04:40:10;100153.56;;;7.56
60731;BMP280;46580;52.114;11.674;2023-04-25T04:42:36;100159.41;;;7.58
60731;BMP280;46580;52.114;11.674;2023-04-25T04:45:02;100167.66;;;7.61
60731;BMP280;46580;52.114;11.674;2023-04-25T04:47:28;100167.91;;;7.69
60731;BMP280;46580;52.114;11.674;2023-04-25T04:49:56;100166.28;;;7.68
60731;BMP280;46580;52.114;11.674;2023-04-25T04:52:21;100178.16;;;7.69
60731;BMP280;46580;52.114;11.674;2023-04-25T04:54:47;100177.34;;;7.69
60731;BMP280;46580;52.114;11.674;2023-04-25T04:57:12;100177.97;;;7.72
60731;BMP280;46580;52.114;11.674;2023-04-25T04:59:37;100177.72;;;7.75
60731;BMP280;46580;52.114;11.674;2023-04-25T05:02:03;100182.63;;;7.78
60731;BMP280;46580;52.114;11.674;2023-04-25T05:04:28;100176.47;;;7.80
60731;BMP280;46580;52.114;11.674;2023-04-25T05:06:53;100179.63;;;7.84
60731;BMP280;46580;52.114;11.674;2023-04-25T05:09:19;100183.44;;;7.79
60731;BMP280;46580;52.114;11.674;2023-04-25T05:11:44;100180.69;;;7.81
60731;BMP280;46580;52.114;11.674;2023-04-25T05:14:10;100186.72;;;7.80
60731;BMP280;46580;52.114;11.674;2023-04-25T05:16:35;100182.06;;;7.75
60731;BMP280;46580;52.114;11.674;2023-04-25T05:19:00;100187.03;;;7.76
60731;BMP280;46580;52.114;11.674;2023-04-25T05:21:26;100190.03;;;7.70
60731;BMP280;46580;52.114;11.674;2023-04-25T05:23:53;100193.44;;;7.71
60731;BMP280;46580;52.114;11.674;2023-04-25T05:26:19;100197.41;;;7.75
60731;BMP280;46580;52.114;11.674;2023-04-25T05:28:45;100194.16;;;7.73
60731;BMP280;46580;52.114;11.674;2023-04-25T05:31:11;100196.34;;;7.66
60731;BMP280;46580;52.114;11.674;2023-04-25T05:33:36;100199.09;;;7.63
60731;BMP280;46580;52.114;11.674;2023-04-25T05:36:02;100206.88;;;7.62
60731;BMP280;46580;52.114;11.674;2023-04-25T05:38:27;100205.97;;;7.63
60731;BMP280;46580;52.114;11.674;2023-04-25T05:40:53;100215.53;;;7.61
60731;BMP280;46580;52.114;11.674;2023-04-25T05:43:18;100206.50;;;7.56
60731;BMP280;46580;52.114;11.674;2023-04-25T05:45:43;100215.94;;;7.55
60731;BMP280;46580;52.114;11.674;2023-04-25T05:48:09;100218.72;;;7.52
60731;BMP280;46580;52.114;11.674;2023-04-25T05:50:34;100224.78;;;7.51
60731;BMP280;46580;52.114;11.674;2023-04-25T05:53:00;100230.63;;;7.53
60731;BMP280;46580;52.114;11.674;2023-04-25T05:55:25;100231.72;;;7.49
60731;BMP280;46580;52.114;11.674;2023-04-25T05:57:50;100248.03;;;7.48
60731;BMP280;46580;52.114;11.674;2023-04-25T06:00:16;100238.50;;;7.50
60731;BMP280;46580;52.114;11.674;2023-04-25T06:02:41;100251.78;;;7.55
60731;BMP280;46580;52.114;11.674;2023-04-25T06:05:08;100260.66;;;7.62
60731;BMP280;46580;52.114;11.674;2023-04-25T06:07:33;100260.09;;;7.59
60731;BMP280;46580;52.114;11.674;2023-04-25T06:09:59;100253.72;;;7.41
60731;BMP280;46580;52.114;11.674;2023-04-25T06:12:26;100262.41;;;7.39
60731;BMP280;46580;52.114;11.674;2023-04-25T06:14:51;100273.47;;;7.39
60731;BMP280;46580;52.114;11.674;2023-04-25T06:17:16;100264.28;;;7.60
60731;BMP280;46580;52.114;11.674;2023-04-25T06:19:41;100276.56;;;7.55
60731;BMP280;46580;52.114;11.674;2023-04-25T06:22:07;100273.47;;;7.62
60731;BMP280;46580;52.114;11.674;2023-04-25T06:24:32;100274.53;;;7.60
60731;BMP280;46580;52.114;11.674;2023-04-25T06:26:58;100275.72;;;7.66
60731;BMP280;46580;52.114;11.674;2023-04-25T06:29:23;100273.47;;;7.62
60731;BMP280;46580;52.114;11.674;2023-04-25T06:31:49;100273.84;;;7.68
60731;BMP280;46580;52.114;11.674;2023-04-25T06:34:14;100286.19;;;7.86
60731;BMP280;46580;52.114;11.674;2023-04-25T06:36:40;100274.03;;;7.78
60731;BMP280;46580;52.114;11.674;2023-04-25T06:39:06;100284.50;;;7.75
60731;BMP280;46580;52.114;11.674;2023-04-25T06:41:32;100286.00;;;7.77
60731;BMP280;46580;52.114;11.674;2023-04-25T06:43:57;100284.50;;;7.75
60731;BMP280;46580;52.114;11.674;2023-04-25T06:46:22;100292.25;;;7.96
60731;BMP280;46580;52.114;11.674;2023-04-25T06:48:48;100285.03;;;8.13
60731;BMP280;46580;52.114;11.674;2023-04-25T06:51:13;100298.09;;;7.98
60731;BMP280;46580;52.114;11.674;2023-04-25T06:53:39;100301.78;;;8.06
60731;BMP280;46580;52.114;11.674;2023-04-25T06:56:05;100290.94;;;8.03
60731;BMP280;46580;52.114;11.674;2023-04-25T06:58:31;100293.03;;;8.09
60731;BMP280;46580;52.114;11.674;2023-04-25T07:00:57;100294.22;;;8.05
60731;BMP280;46580;52.114;11.674;2023-04-25T07:03:22;100295.41;;;8.12
60731;BMP280;46580;52.114;11.674;2023-04-25T07:05:47;100296.81;;;8.16
60731;BMP280;46580;52.114;11.674;2023-04-25T07:08:13;100295.19;;;8.15
60731;BMP280;46580;52.114;11.674;2023-04-25T07:10:38;100303.31;;;8.09
60731;BMP280;46580;52.114;11.674;2023-04-25T07:13:03;100313.31;;;8.01
60731;BMP280;46580;52.114;11.674;2023-04-25T07:15:29;100312.97;;;8.05
60731;BMP280;46580;52.114;11.674;2023-04-25T07:17:54;100314.25;;;8.11
60731;BMP280;46580;52.114;11.674;2023-04-25T07:20:19;100305.72;;;7.99
60731;BMP280;46580;52.114;11.674;2023-04-25T07:22:45;100305.00;;;8.20
60731;BMP280;46580;52.114;11.674;2023-04-25T07:25:10;100304.97;;;8.54
60731;BMP280;46580;52.114;11.674;2023-04-25T07:27:36;100301.13;;;8.59
60731;BMP280;46580;52.114;11.674;2023-04-25T07:30:01;100311.88;;;8.64
60731;BMP280;46580;52.114;11.674;2023-04-25T07:32:27;100301.06;;;8.82
60731;BMP280;46580;52.114;11.674;2023-04-25T07:34:52;100299.31;;;8.93
60731;BMP280;46580;52.114;11.674;2023-04-25T07:37:18;100315.88;;;9.00
60731;BMP280;46580;52.114;11.674;2023-04-25T07:39:44;100310.75;;;9.11
60731;BMP280;46580;52.114;11.674;2023-04-25T07:42:11;100304.91;;;8.88
60731;BMP280;46580;52.114;11.674;2023-04-25T07:44:36;100308.75;;;8.93
60731;BMP280;46580;52.114;11.674;2023-04-25T07:47:07;100313.75;;;9.37
60731;BMP280;46580;52.114;11.674;2023-04-25T07:49:36;100310.38;;;9.37
60731;BMP280;46580;52.114;11.674;2023-04-25T07:52:03;100313.78;;;9.27
60731;BMP280;46580;52.114;11.674;2023-04-25T07:54:28;100312.84;;;9.17
60731;BMP280;46580;52.114;11.674;2023-04-25T07:56:54;100322.28;;;9.16
60731;BMP280;46580;52.114;11.674;2023-04-25T07:59:19;100326.28;;;9.20
60731;BMP280;46580;52.114;11.674;2023-04-25T08:01:45;100331.28;;;9.22
60731;BMP280;46580;52.114;11.674;2023-04-25T08:04:10;100338.41;;;9.40
60731;BMP280;46580;52.114;11.674;2023-04-25T08:06:36;100326.56;;;9.69
60731;BMP280;46580;52.114;11.674;2023-04-25T08:09:01;100328.06;;;9.93
60731;BMP280;46580;52.114;11.674;2023-04-25T08:11:28;100320.50;;;9.60
60731;BMP280;46580;52.114;11.674;2023-04-25T08:13:54;100327.06;;;9.53
60731;BMP280;46580;52.114;11.674;2023-04-25T08:16:19;100344.81;;;9.45
60731;BMP280;46580;52.114;11.674;2023-04-25T08:18:44;100338.97;;;9.32
60731;BMP280;46580;52.114;11.674;2023-04-25T08:21:10;100356.28;;;9.09
60731;BMP280;46580;52.114;11.674;2023-04-25T08:23:36;100354.41;;;9.32
60731;BMP280;46580;52.114;11.674;2023-04-25T08:26:02;100345.50;;;9.68
60731;BMP280;46580;52.114;11.674;2023-04-25T08:28:27;100351.22;;;9.50
60731;BMP280;46580;52.114;11.674;2023-04-25T08:30:53;100357.66;;;9.56
60731;BMP280;46580;52.114;11.674;2023-04-25T08:33:18;100356.09;;;9.64
60731;BMP280;46580;52.114;11.674;2023-04-25T08:35:44;100361.38;;;9.73
60731;BMP280;46580;52.114;11.674;2023-04-25T08:38:09;100361.84;;;9.89
60731;BMP280;46580;52.114;11.674;2023-04-25T08:40:37;100373.97;;;9.65
60731;BMP280;46580;52.114;11.674;2023-04-25T08:43:04;100371.88;;;9.70
60731;BMP280;46580;52.114;11.674;2023-04-25T08:45:31;100378.81;;;9.48
60731;BMP280;46580;52.114;11.674;2023-04-25T08:47:57;100376.44;;;9.46
60731;BMP280;46580;52.114;11.674;2023-04-25T08:50:23;100383.81;;;9.61
60731;BMP280;46580;52.114;11.674;2023-04-25T08:52:50;100384.53;;;9.63
60731;BMP280;46580;52.114;11.674;2023-04-25T08:55:18;100385.25;;;10.17
60731;BMP280;46580;52.114;11.674;2023-04-25T08:57:44;100379.63;;;10.12
60731;BMP280;46580;52.114;11.674;2023-04-25T09:00:11;100385.09;;;9.77
60731;BMP280;46580;52.114;11.674;2023-04-25T09:02:38;100391.66;;;9.81
60731;BMP280;46580;52.114;11.674;2023-04-25T09:05:05;100394.31;;;9.79
60731;BMP280;46580;52.114;11.674;2023-04-25T09:07:31;100387.72;;;10.07
60731;BMP280;46580;52.114;11.674;2023-04-25T09:09:56;100396.88;;;10.31
60731;BMP280;46580;52.114;11.674;2023-04-25T09:12:24;100410.09;;;9.96
60731;BMP280;46580;52.114;11.674;2023-04-25T09:15:04;100399.28;;;10.13
60731;BMP280;46580;52.114;11.674;2023-04-25T09:17:30;100402.00;;;10.42
60731;BMP280;46580;52.114;11.674;2023-04-25T09:20:05;100404.25;;;10.36
60731;BMP280;46580;52.114;11.674;2023-04-25T09:22:31;100401.81;;;10.54
60731;BMP280;46580;52.114;11.674;2023-04-25T09:24:56;100408.81;;;10.32
60731;BMP280;46580;52.114;11.674;2023-04-25T09:27:22;100411.38;;;10.32
60731;BMP280;46580;52.114;11.674;2023-04-25T09:29:57;100421.31;;;10.37
60731;BMP280;46580;52.114;11.674;2023-04-25T09:32:24;100429.16;;;10.35
60731;BMP280;46580;52.114;11.674;2023-04-25T09:34:54;100432.44;;;10.26
60731;BMP280;46580;52.114;11.674;2023-04-25T09:37:25;100428.50;;;10.22
60731;BMP280;46580;52.114;11.674;2023-04-25T09:39:55;100443.38;;;9.98
60731;BMP280;46580;52.114;11.674;2023-04-25T09:42:25;100440.59;;;9.79
60731;BMP280;46580;52.114;11.674;2023-04-25T09:44:54;100448.06;;;9.93
60731;BMP280;46580;52.114;11.674;2023-04-25T09:47:20;100438.69;;;10.03
60731;BMP280;46580;52.114;11.674;2023-04-25T09:49:47;100449.00;;;10.03
60731;BMP280;46580;52.114;11.674;2023-04-25T09:52:15;100448.41;;;9.88
60731;BMP280;46580;52.114;11.674;2023-04-25T09:54:41;100451.41;;;10.04
60731;BMP280;46580;52.114;11.674;2023-04-25T09:57:23;100448.75;;;10.47
60731;BMP280;46580;52.114;11.674;2023-04-25T09:59:53;100450.78;;;10.33
60731;BMP280;46580;52.114;11.674;2023-04-25T10:02:26;100442.56;;;10.49
60731;BMP280;46580;52.114;11.674;2023-04-25T10:04:54;100452.41;;;10.75
60731;BMP280;46580;52.114;11.674;2023-04-25T10:07:25;100444.44;;;11.18
60731;BMP280;46580;52.114;11.674;2023-04-25T10:09:55;100450.00;;;10.63
60731;BMP280;46580;52.114;11.674;2023-04-25T10:12:24;100457.03;;;10.09
60731;BMP280;46580;52.114;11.674;2023-04-25T10:14:50;100457.63;;;9.91
60731;BMP280;46580;52.114;11.674;2023-04-25T10:17:16;100458.34;;;9.82
60731;BMP280;46580;52.114;11.674;2023-04-25T10:19:43;100477.69;;;9.54
60731;BMP280;46580;52.114;11.674;2023-04-25T10:22:14;100481.88;;;9.44
60731;BMP280;46580;52.114;11.674;2023-04-25T10:24:42;100481.66;;;9.47
60731;BMP280;46580;52.114;11.674;2023-04-25T10:27:09;100480.47;;;9.40
60731;BMP280;46580;52.114;11.674;2023-04-25T10:29:35;100484.22;;;9.36
60731;BMP280;46580;52.114;11.674;2023-04-25T10:32:00;100485.00;;;9.37
60731;BMP280;46580;52.114;11.674;2023-04-25T10:34:43;100491.00;;;9.48
60731;BMP280;46580;52.114;11.674;2023-04-25T10:37:09;100489.63;;;9.55
60731;BMP280;46580;52.114;11.674;2023-04-25T10:39:40;100490.66;;;9.42
60731;BMP280;46580;52.114;11.674;2023-04-25T10:42:09;100488.28;;;9.39
60731;BMP280;46580;52.114;11.674;2023-04-25T10:44:36;100501.94;;;9.28
60731;BMP280;46580;52.114;11.674;2023-04-25T10:47:02;100494.25;;;9.39
60731;BMP280;46580;52.114;11.674;2023-04-25T10:49:41;100485.72;;;9.28
60731;BMP280;46580;52.114;11.674;2023-04-25T10:52:44;100482.81;;;9.32
60731;BMP280;46580;52.114;11.674;2023-04-25T10:55:03;100492.19;;;9.55
60731;BMP280;46580;52.114;11.674;2023-04-25T10:57:32;100492.66;;;9.49
60731;BMP280;46580;52.114;11.674;2023-04-25T11:02:30;100490.19;;;10.33
60731;BMP280;46580;52.114;11.674;2023-04-25T11:04:56;100488.75;;;10.51
60731;BMP280;46580;52.114;11.674;2023-04-25T11:09:55;100486.47;;;10.05
60731;BMP280;46580;52.114;11.674;2023-04-25T11:12:21;100492.00;;;9.90
60731;BMP280;46580;52.114;11.674;2023-04-25T11:14:46;100494.09;;;9.85
60731;BMP280;46580;52.114;11.674;2023-04-25T11:17:11;100493.53;;;9.82
60731;BMP280;46580;52.114;11.674;2023-04-25T11:19:37;100485.91;;;9.80
60731;BMP280;46580;52.114;11.674;2023-04-25T11:22:03;100486.03;;;10.00
60731;BMP280;46580;52.114;11.674;2023-04-25T11:24:28;100488.47;;;10.12
60731;BMP280;46580;52.114;11.674;2023-04-25T11:26:54;100489.63;;;10.19
60731;BMP280;46580;52.114;11.674;2023-04-25T11:29:23;100491.97;;;10.11
60731;BMP280;46580;52.114;11.674;2023-04-25T11:31:52;100496.66;;;10.17
60731;BMP280;46580;52.114;11.674;2023-04-25T11:34:18;100499.69;;;10.22
60731;BMP280;46580;52.114;11.674;2023-04-25T11:36:45;100496.41;;;10.20
60731;BMP280;46580;52.114;11.674;2023-04-25T11:39:11;100500.16;;;10.16
60731;BMP280;46580;52.114;11.674;2023-04-25T11:41:39;100494.53;;;10.11
60731;BMP280;46580;52.114;11.674;2023-04-25T11:44:06;100506.00;;;10.07
60731;BMP280;46580;52.114;11.674;2023-04-25T11:46:33;100509.50;;;10.06
60731;BMP280;46580;52.114;11.674;2023-04-25T11:48:59;100517.81;;;9.99
60731;BMP280;46580;52.114;11.674;2023-04-25T11:51:24;100522.72;;;10.02
60731;BMP280;46580;52.114;11.674;2023-04-25T11:53:51;100519.31;;;10.12
60731;BMP280;46580;52.114;11.674;2023-04-25T11:56:17;100515.81;;;10.13
60731;BMP280;46580;52.114;11.674;2023-04-25T11:58:56;100534.75;;;10.12
60731;BMP280;46580;52.114;11.674;2023-04-25T12:01:34;100533.72;;;10.15
60731;BMP280;46580;52.114;11.674;2023-04-25T12:04:15;100515.94;;;10.12
60731;BMP280;46580;52.114;11.674;2023-04-25T12:06:42;100531.09;;;10.47
60731;BMP280;46580;52.114;11.674;2023-04-25T12:09:09;100528.88;;;11.14
60731;BMP280;46580;52.114;11.674;2023-04-25T12:11:42;100518.88;;;11.21
60731;BMP280;46580;52.114;11.674;2023-04-25T12:14:08;100513.47;;;11.04
60731;BMP280;46580;52.114;11.674;2023-04-25T12:16:44;100516.16;;;10.72
60731;BMP280;46580;52.114;11.674;2023-04-25T12:19:13;100523.97;;;10.50
60731;BMP280;46580;52.114;11.674;2023-04-25T12:21:39;100530.03;;;10.39
60731;BMP280;46580;52.114;11.674;2023-04-25T12:26:51;100526.72;;;10.58
60731;BMP280;46580;52.114;11.674;2023-04-25T12:29:21;100529.28;;;10.58
60731;BMP280;46580;52.114;11.674;2023-04-25T12:31:48;100529.69;;;10.43
60731;BMP280;46580;52.114;11.674;2023-04-25T12:34:13;100529.59;;;10.34
60731;BMP280;46580;52.114;11.674;2023-04-25T12:36:38;100527.59;;;10.26
60731;BMP280;46580;52.114;11.674;2023-04-25T12:39:04;100526.31;;;10.32
60731;BMP280;46580;52.114;11.674;2023-04-25T12:41:30;100523.69;;;10.53
60731;BMP280;46580;52.114;11.674;2023-04-25T12:43:56;100538.81;;;10.47
60731;BMP280;46580;52.114;11.674;2023-04-25T12:46:21;100531.69;;;10.50
60731;BMP280;46580;52.114;11.674;2023-04-25T12:48:48;100533.50;;;10.59
60731;BMP280;46580;52.114;11.674;2023-04-25T12:51:13;100533.78;;;10.56
60731;BMP280;46580;52.114;11.674;2023-04-25T12:53:38;100544.72;;;10.69
60731;BMP280;46580;52.114;11.674;2023-04-25T12:56:06;100541.59;;;10.55
60731;BMP280;46580;52.114;11.674;2023-04-25T12:58:32;100545.34;;;10.61
60731;BMP280;46580;52.114;11.674;2023-04-25T13:00:58;100546.97;;;10.62
60731;BMP280;46580;52.114;11.674;2023-04-25T13:03:24;100548.13;;;10.58
60731;BMP280;46580;52.114;11.674;2023-04-25T13:05:50;100540.34;;;10.49
60731;BMP280;46580;52.114;11.674;2023-04-25T13:08:17;100548.06;;;10.39
60731;BMP280;46580;52.114;11.674;2023-04-25T13:10:43;100550.44;;;10.31
60731;BMP280;46580;52.114;11.674;2023-04-25T13:13:08;100548.63;;;10.31
60731;BMP280;46580;52.114;11.674;2023-04-25T13:15:33;100561.88;;;10.16
60731;BMP280;46580;52.114;11.674;2023-04-25T13:17:59;100556.75;;;10.16
60731;BMP280;46580;52.114;11.674;2023-04-25T13:20:24;100565.50;;;10.14
60731;BMP280;46580;52.114;11.674;2023-04-25T13:22:50;100566.53;;;10.33
60731;BMP280;46580;52.114;11.674;2023-04-25T13:25:15;100565.84;;;10.41
60731;BMP280;46580;52.114;11.674;2023-04-25T13:27:41;100553.41;;;10.57
60731;BMP280;46580;52.114;11.674;2023-04-25T13:30:09;100557.81;;;10.77
60731;BMP280;46580;52.114;11.674;2023-04-25T13:32:35;100560.34;;;10.98
60731;BMP280;46580;52.114;11.674;2023-04-25T13:35:02;100566.31;;;10.88
60731;BMP280;46580;52.114;11.674;2023-04-25T13:37:27;100561.50;;;10.94
60731;BMP280;46580;52.114;11.674;2023-04-25T13:39:54;100562.19;;;11.27
60731;BMP280;46580;52.114;11.674;2023-04-25T13:42:24;100561.69;;;11.43
60731;BMP280;46580;52.114;11.674;2023-04-25T13:44:54;100559.59;;;11.77
60731;BMP280;46580;52.114;11.674;2023-04-25T13:47:20;100571.38;;;11.51
60731;BMP280;46580;52.114;11.674;2023-04-25T13:49:45;100568.31;;;11.46
60731;BMP280;46580;52.114;11.674;2023-04-25T13:52:11;100557.84;;;11.78
60731;BMP280;46580;52.114;11.674;2023-04-25T13:54:37;100563.38;;;11.23
60731;BMP280;46580;52.114;11.674;2023-04-25T13:57:03;100579.78;;;10.91